Prater, Kentucky
Current Conditions -  °F | °C
As of 4:30 PM on Friday 28 Nov 2014 (Local Time) from KSYM Reporting Station
Broken Clouds Broken Clouds  
Wind Chill: 32°   Ceiling: 12000
Heat Index: 36°   Visibility: 10mi
Dew Point: 16°   Wind: 5mph
Humidity: 44%   Direction: 190°S
Pressure: 30.26"   Gusts: 12mph
Location:  38.3543°N, 83.1837°W
Report Text: KSYM 282130Z AUTO 19004G10KT 10SM BKN120 02/M09 A3026 RMK AO2
Loading
Personal Weather Stations






























Interactive Weather Map New forecast layout! Learn more

10-Day Weather Forecast

Advertisements
Track Severe Weather on mobile